Time;durP1;ratioP1;P1;durP2;ratioP2;P2;SDS_P1;SDS_P2;PMS_P1;PMS_P2;Temp;Humidity;BMP_temperature;BMP_pressure;BME280_temperature;BME280_humidity;BME280_pressure;Samples;Min_cycle;Max_cycle;Signal;HPM_P1;HPM_P2
2022/06/04 00:00:04;;;;;;;;;;;21.80;60.30;;;;;;5003915;28;19932;-67
2022/06/04 00:02:29;;;;;;;;;;;21.80;60.60;;;;;;5004055;28;19921;-66
2022/06/04 00:04:55;;;;;;;;;;;21.70;60.60;;;;;;5003866;28;19913;-68
2022/06/04 00:07:20;;;;;;;;;;;21.80;60.70;;;;;;5004890;28;19917;-67
2022/06/04 00:15:29;;;;;;;;;;;21.70;60.30;;;;;;5003613;28;20291;-66
2022/06/04 00:15:32;;;;;;;;;;;21.80;59.50;;;;;;5004776;28;19920;-66
2022/06/04 00:17:58;;;;;;;;;;;21.80;59.00;;;;;;5005765;28;19924;-66
2022/06/04 00:20:23;;;;;;;;;;;21.80;58.20;;;;;;5006087;28;19962;-66
2022/06/04 00:22:49;;;;;;;;;;;21.90;58.20;;;;;;5023402;28;19913;-66
2022/06/04 00:25:14;;;;;;;;;;;21.90;58.40;;;;;;5031618;28;19947;-66
2022/06/04 00:27:40;;;;;;;;;;;21.90;58.60;;;;;;5031594;28;20161;-67
2022/06/04 00:30:06;;;;;;;;;;;21.90;58.10;;;;;;5027007;28;19913;-66
2022/06/04 00:32:33;;;;;;;;;;;21.90;57.90;;;;;;5025696;28;20407;-67
2022/06/04 00:35:02;;;;;;;;;;;21.90;58.20;;;;;;5025876;28;19919;-67
2022/06/04 00:37:30;;;;;;;;;;;21.90;58.30;;;;;;5007864;28;19944;-65
2022/06/04 00:39:57;;;;;;;;;;;21.90;58.10;;;;;;5026510;28;19913;-66
2022/06/04 00:42:23;;;;;;;;;;;22.00;58.10;;;;;;4995971;28;20380;-67
2022/06/04 00:44:48;;;;;;;;;;;21.90;58.00;;;;;;5012290;28;19917;-66
2022/06/04 00:47:15;;;;;;;;;;;21.90;58.10;;;;;;5025649;28;20295;-67
2022/06/04 00:49:40;;;;;;;;;;;21.90;58.00;;;;;;5025988;28;19933;-66
2022/06/04 00:52:07;;;;;;;;;;;21.90;58.20;;;;;;5025355;28;19917;-65
2022/06/04 00:54:33;;;;;;;;;;;21.90;58.00;;;;;;5008365;28;19920;-67
2022/06/04 00:57:02;;;;;;;;;;;21.90;58.10;;;;;;5026070;28;19913;-67
2022/06/04 00:59:30;;;;;;;;;;;21.90;58.50;;;;;;5008471;28;20005;-65
2022/06/04 01:02:11;;;;;;;;;;;21.90;58.10;;;;;;5025813;28;19913;-65
2022/06/04 01:04:55;;;;;;;;;;;21.90;58.10;;;;;;5008187;28;19917;-66
2022/06/04 01:07:24;;;;;;;;;;;21.90;58.60;;;;;;5025743;28;19917;-66
2022/06/04 01:09:56;;;;;;;;;;;21.90;58.30;;;;;;5007932;28;19913;-67
2022/06/04 01:12:36;;;;;;;;;;;21.90;58.30;;;;;;5008441;28;20626;-67
2022/06/04 01:15:08;;;;;;;;;;;21.90;58.10;;;;;;5024816;28;20680;-66
2022/06/04 01:17:38;;;;;;;;;;;21.90;58.30;;;;;;5025874;28;20518;-67
2022/06/04 01:20:03;;;;;;;;;;;21.90;58.40;;;;;;5008468;28;19967;-66
2022/06/04 01:22:32;;;;;;;;;;;22.00;58.20;;;;;;5025536;28;19917;-67
2022/06/04 01:25:00;;;;;;;;;;;21.90;58.50;;;;;;5025453;28;20158;-67
2022/06/04 01:27:30;;;;;;;;;;;21.90;58.60;;;;;;5025710;28;19917;-67
2022/06/04 01:29:57;;;;;;;;;;;21.90;58.40;;;;;;5026047;28;19947;-66
2022/06/04 01:32:37;;;;;;;;;;;21.90;58.80;;;;;;4999091;28;19913;-67
2022/06/04 01:35:05;;;;;;;;;;;21.90;58.20;;;;;;5006530;28;19917;-66
2022/06/04 01:37:33;;;;;;;;;;;21.90;58.50;;;;;;5009326;28;20268;-67
2022/06/04 01:42:45;;;;;;;;;;;21.90;58.40;;;;;;5016365;28;20381;-67
2022/06/04 01:45:10;;;;;;;;;;;21.90;58.40;;;;;;5029074;28;19913;-66
2022/06/04 01:47:36;;;;;;;;;;;22.00;58.20;;;;;;5007632;28;19955;-67
2022/06/04 01:50:02;;;;;;;;;;;21.90;58.60;;;;;;5025449;28;19913;-66
2022/06/04 01:52:32;;;;;;;;;;;21.90;58.20;;;;;;5007362;28;19971;-65
2022/06/04 01:55:00;;;;;;;;;;;21.90;58.60;;;;;;5025286;28;20191;-66
2022/06/04 01:57:35;;;;;;;;;;;21.90;58.70;;;;;;5024945;28;20008;-66
2022/06/04 02:00:04;;;;;;;;;;;21.90;58.50;;;;;;5007561;28;19921;-67
2022/06/04 02:02:30;;;;;;;;;;;21.90;58.30;;;;;;5007512;28;19917;-65
2022/06/04 02:04:58;;;;;;;;;;;21.90;58.30;;;;;;5007688;28;19918;-65
2022/06/04 02:07:30;;;;;;;;;;;21.90;58.30;;;;;;5007590;28;19921;-66
2022/06/04 02:09:57;;;;;;;;;;;21.90;58.30;;;;;;5024800;28;20410;-67
2022/06/04 02:12:23;;;;;;;;;;;21.90;58.40;;;;;;5024944;28;20008;-67
2022/06/04 02:14:48;;;;;;;;;;;21.90;59.00;;;;;;5025409;28;20307;-67
2022/06/04 02:17:15;;;;;;;;;;;21.90;58.70;;;;;;5025311;28;19917;-67
2022/06/04 02:19:41;;;;;;;;;;;21.90;58.50;;;;;;5007951;28;20418;-67
2022/06/04 02:22:06;;;;;;;;;;;21.90;58.90;;;;;;5025048;28;19914;-66
2022/06/04 02:24:32;;;;;;;;;;;21.90;58.50;;;;;;5008583;28;20297;-67
2022/06/04 02:26:57;;;;;;;;;;;21.90;58.70;;;;;;5024984;28;20225;-67
2022/06/04 02:29:23;;;;;;;;;;;21.90;58.50;;;;;;5024173;28;19920;-66
2022/06/04 02:32:08;;;;;;;;;;;21.90;58.60;;;;;;5007266;28;19913;-67
2022/06/04 02:34:34;;;;;;;;;;;21.90;58.70;;;;;;5022634;28;20517;-67
2022/06/04 02:37:06;;;;;;;;;;;21.90;58.70;;;;;;5024484;28;19924;-66
2022/06/04 02:39:37;;;;;;;;;;;22.00;58.80;;;;;;5024079;28;19917;-67
2022/06/04 02:42:07;;;;;;;;;;;21.90;58.70;;;;;;5006583;28;19928;-67
2022/06/04 02:44:33;;;;;;;;;;;21.90;58.50;;;;;;5005949;28;19913;-67
2022/06/04 02:47:01;;;;;;;;;;;21.90;58.70;;;;;;5005919;28;20029;-67
2022/06/04 02:49:36;;;;;;;;;;;21.90;58.40;;;;;;5006526;28;19913;-67
2022/06/04 02:52:01;;;;;;;;;;;21.90;58.70;;;;;;5006670;28;19917;-67
2022/06/04 02:54:28;;;;;;;;;;;21.90;59.20;;;;;;5006378;28;19952;-67
2022/06/04 02:56:53;;;;;;;;;;;21.90;58.20;;;;;;5023956;28;20298;-67
2022/06/04 02:59:19;;;;;;;;;;;21.90;58.50;;;;;;5006718;28;19931;-67
2022/06/04 03:01:44;;;;;;;;;;;21.90;58.90;;;;;;5006642;28;20276;-67
2022/06/04 03:04:10;;;;;;;;;;;21.90;58.80;;;;;;5006482;28;19932;-67
2022/06/04 03:06:35;;;;;;;;;;;21.90;58.40;;;;;;4989799;28;19917;-67
2022/06/04 03:09:01;;;;;;;;;;;21.90;58.80;;;;;;5024161;28;19978;-67
2022/06/04 03:11:27;;;;;;;;;;;21.90;58.60;;;;;;5024089;28;20488;-68
2022/06/04 03:13:52;;;;;;;;;;;21.90;58.50;;;;;;5023904;28;19917;-67
2022/06/04 03:16:18;;;;;;;;;;;21.90;58.60;;;;;;5023837;28;19921;-67
2022/06/04 03:18:43;;;;;;;;;;;21.90;58.80;;;;;;5024772;28;20393;-67
2022/06/04 03:21:09;;;;;;;;;;;21.90;58.40;;;;;;5024312;28;20000;-66
2022/06/04 03:23:34;;;;;;;;;;;21.90;58.80;;;;;;5024834;28;19913;-68
2022/06/04 03:26:00;;;;;;;;;;;21.90;58.20;;;;;;5025504;28;20643;-65
2022/06/04 03:28:25;;;;;;;;;;;21.90;58.60;;;;;;5027289;28;19924;-67
2022/06/04 03:30:51;;;;;;;;;;;21.90;58.50;;;;;;5027589;28;20402;-68
2022/06/04 03:33:16;;;;;;;;;;;21.90;58.30;;;;;;5013845;28;19921;-68
2022/06/04 03:35:42;;;;;;;;;;;21.90;58.40;;;;;;5022882;28;19917;-67
2022/06/04 03:38:08;;;;;;;;;;;21.90;58.30;;;;;;5005728;28;20287;-67
2022/06/04 03:40:33;;;;;;;;;;;21.90;58.20;;;;;;5023692;28;19914;-69
2022/06/04 03:42:59;;;;;;;;;;;21.90;58.40;;;;;;5023374;28;20349;-67
2022/06/04 03:45:26;;;;;;;;;;;21.90;58.40;;;;;;5022727;28;20335;-67
2022/06/04 03:47:52;;;;;;;;;;;22.00;58.60;;;;;;5023669;28;20031;-67
2022/06/04 03:50:18;;;;;;;;;;;21.90;58.30;;;;;;5023835;28;19925;-67
2022/06/04 03:52:43;;;;;;;;;;;21.90;58.40;;;;;;5023760;28;20092;-68
2022/06/04 03:55:09;;;;;;;;;;;21.90;58.70;;;;;;5023391;28;19913;-68
2022/06/04 03:57:38;;;;;;;;;;;21.90;58.30;;;;;;5022862;28;19921;-67
2022/06/04 04:00:27;;;;;;;;;;;21.90;58.20;;;;;;5027072;28;19913;-67
2022/06/04 04:02:53;;;;;;;;;;;21.90;58.30;;;;;;5016353;28;19963;-68
2022/06/04 04:05:20;;;;;;;;;;;21.90;58.20;;;;;;5026980;28;19924;-67
2022/06/04 04:07:46;;;;;;;;;;;21.90;58.10;;;;;;5025882;28;19921;-66
2022/06/04 04:10:11;;;;;;;;;;;22.00;58.30;;;;;;5026076;28;19920;-67
2022/06/04 04:12:37;;;;;;;;;;;21.90;58.10;;;;;;5026495;28;19920;-66
2022/06/04 04:15:02;;;;;;;;;;;21.90;58.40;;;;;;5026293;28;20279;-68
2022/06/04 04:17:28;;;;;;;;;;;21.90;58.00;;;;;;5026743;28;19913;-66
2022/06/04 04:19:54;;;;;;;;;;;21.90;58.50;;;;;;5027413;28;19992;-67
2022/06/04 04:22:19;;;;;;;;;;;21.90;58.20;;;;;;5026184;28;19913;-68
2022/06/04 04:24:45;;;;;;;;;;;21.90;58.30;;;;;;5026768;28;19913;-68
2022/06/04 04:27:11;;;;;;;;;;;21.90;58.30;;;;;;5027970;28;19967;-67
2022/06/04 04:29:37;;;;;;;;;;;22.00;58.20;;;;;;5028471;28;19925;-69
2022/06/04 04:32:02;;;;;;;;;;;21.90;58.20;;;;;;5029239;28;19913;-68
2022/06/04 04:34:28;;;;;;;;;;;22.00;58.30;;;;;;5030817;28;19913;-68
2022/06/04 04:36:53;;;;;;;;;;;21.90;58.30;;;;;;5012616;28;19913;-69
2022/06/04 04:39:19;;;;;;;;;;;22.00;58.30;;;;;;5026931;28;20014;-69
2022/06/04 04:41:44;;;;;;;;;;;21.90;58.50;;;;;;5026082;28;19928;-68
2022/06/04 04:44:10;;;;;;;;;;;22.00;58.30;;;;;;5026036;28;19913;-67
2022/06/04 04:46:35;;;;;;;;;;;21.90;58.30;;;;;;5025748;28;19920;-68
2022/06/04 04:49:01;;;;;;;;;;;21.90;58.50;;;;;;5026301;28;19939;-68
2022/06/04 04:51:26;;;;;;;;;;;21.90;58.20;;;;;;5025817;28;19939;-69
2022/06/04 04:53:52;;;;;;;;;;;21.90;58.30;;;;;;5025966;28;19925;-68
2022/06/04 04:56:18;;;;;;;;;;;22.00;58.30;;;;;;5020067;28;20285;-67
2022/06/04 04:58:43;;;;;;;;;;;22.00;58.40;;;;;;5025366;28;19921;-68
2022/06/04 05:01:15;;;;;;;;;;;22.00;58.30;;;;;;5025255;28;20574;-68
2022/06/04 05:03:44;;;;;;;;;;;22.00;58.40;;;;;;5009056;28;20178;-67
2022/06/04 05:06:09;;;;;;;;;;;22.00;58.40;;;;;;5025607;28;19917;-68
2022/06/04 05:08:35;;;;;;;;;;;22.00;58.30;;;;;;5026660;28;19913;-66
2022/06/04 05:11:07;;;;;;;;;;;22.00;58.40;;;;;;5025770;28;19924;-67
2022/06/04 05:13:33;;;;;;;;;;;22.00;58.30;;;;;;5025546;28;20294;-67
2022/06/04 05:15:58;;;;;;;;;;;22.00;58.40;;;;;;5025215;28;19913;-67
2022/06/04 05:18:24;;;;;;;;;;;22.00;58.40;;;;;;5026372;28;19913;-71
2022/06/04 05:20:49;;;;;;;;;;;22.00;58.40;;;;;;5024686;28;21195;-69
2022/06/04 05:23:14;;;;;;;;;;;22.00;58.50;;;;;;5025138;28;19913;-69
2022/06/04 05:25:40;;;;;;;;;;;21.90;58.50;;;;;;5024879;28;20636;-69
2022/06/04 05:28:05;;;;;;;;;;;22.00;58.90;;;;;;5025374;28;19917;-68
2022/06/04 05:30:31;;;;;;;;;;;22.00;59.00;;;;;;5024752;28;20024;-68
2022/06/04 05:32:56;;;;;;;;;;;22.00;59.00;;;;;;5025094;28;19917;-68
2022/06/04 05:35:22;;;;;;;;;;;22.00;59.00;;;;;;5025058;28;19914;-68
2022/06/04 05:37:47;;;;;;;;;;;22.00;59.40;;;;;;5024770;28;20395;-67
2022/06/04 05:40:13;;;;;;;;;;;22.00;59.30;;;;;;5024916;28;19924;-68
2022/06/04 05:42:38;;;;;;;;;;;22.00;59.40;;;;;;5025136;28;19913;-67
2022/06/04 05:45:04;;;;;;;;;;;21.90;59.30;;;;;;5024721;28;20375;-68
2022/06/04 05:47:29;;;;;;;;;;;21.90;59.70;;;;;;5024034;28;19956;-70
2022/06/04 05:49:55;;;;;;;;;;;22.00;59.50;;;;;;5005320;28;20837;-68
2022/06/04 05:52:21;;;;;;;;;;;22.00;59.70;;;;;;5024334;28;19921;-68
2022/06/04 05:54:46;;;;;;;;;;;22.00;60.20;;;;;;5024564;28;20539;-64
2022/06/04 05:57:12;;;;;;;;;;;22.00;59.50;;;;;;5024109;28;19914;-67
2022/06/04 05:59:37;;;;;;;;;;;22.00;58.90;;;;;;5024716;28;19917;-67
2022/06/04 06:02:03;;;;;;;;;;;22.00;58.90;;;;;;5024495;28;19948;-67
2022/06/04 06:04:28;;;;;;;;;;;22.00;58.80;;;;;;5023782;28;19925;-67
2022/06/04 06:06:54;;;;;;;;;;;22.00;58.80;;;;;;5024611;28;19956;-68
2022/06/04 06:09:21;;;;;;;;;;;22.00;59.00;;;;;;5024461;28;20302;-69
2022/06/04 06:11:48;;;;;;;;;;;22.00;60.00;;;;;;5023982;28;19913;-67
2022/06/04 06:14:14;;;;;;;;;;;22.00;59.90;;;;;;5024031;28;19967;-67
2022/06/04 06:16:40;;;;;;;;;;;22.00;59.00;;;;;;5023674;28;19913;-67
2022/06/04 06:19:07;;;;;;;;;;;22.00;59.20;;;;;;5006347;28;20418;-65
2022/06/04 06:21:32;;;;;;;;;;;22.00;59.00;;;;;;5023333;28;19913;-68
2022/06/04 06:23:58;;;;;;;;;;;22.00;59.30;;;;;;5023808;28;20434;-68
2022/06/04 06:26:25;;;;;;;;;;;22.00;59.10;;;;;;5024280;28;19952;-68
2022/06/04 06:28:51;;;;;;;;;;;22.00;59.10;;;;;;5024422;28;19945;-66
2022/06/04 06:31:17;;;;;;;;;;;22.00;59.20;;;;;;5024136;28;19952;-68
2022/06/04 06:33:42;;;;;;;;;;;22.00;59.30;;;;;;5023386;28;19918;-68
2022/06/04 06:36:09;;;;;;;;;;;21.90;59.60;;;;;;5023059;28;19920;-67
2022/06/04 06:38:34;;;;;;;;;;;21.90;59.30;;;;;;5023825;28;19913;-67
2022/06/04 06:40:59;;;;;;;;;;;21.90;59.70;;;;;;5023814;28;19941;-68
2022/06/04 06:43:38;;;;;;;;;;;21.90;60.00;;;;;;5023817;28;20372;-64
2022/06/04 06:46:08;;;;;;;;;;;21.90;60.80;;;;;;5023128;28;19917;-68
2022/06/04 06:48:33;;;;;;;;;;;21.90;61.10;;;;;;5023823;28;19917;-65
2022/06/04 06:51:09;;;;;;;;;;;21.90;60.10;;;;;;5024057;28;19913;-68
2022/06/04 06:53:34;;;;;;;;;;;21.90;60.00;;;;;;5023962;28;19913;-67
2022/06/04 06:56:18;;;;;;;;;;;21.90;60.20;;;;;;5023862;28;19920;-67
2022/06/04 06:58:44;;;;;;;;;;;21.90;60.10;;;;;;5023239;28;20018;-67
2022/06/04 07:01:10;;;;;;;;;;;21.90;59.70;;;;;;5023786;28;19940;-68
2022/06/04 07:03:35;;;;;;;;;;;21.90;60.10;;;;;;5024450;28;19991;-68
2022/06/04 07:06:01;;;;;;;;;;;22.00;60.10;;;;;;5024592;28;19932;-68
2022/06/04 07:08:26;;;;;;;;;;;22.00;59.70;;;;;;5024648;28;19913;-68
2022/06/04 07:10:52;;;;;;;;;;;21.90;60.00;;;;;;5024629;28;19932;-66
2022/06/04 07:13:17;;;;;;;;;;;21.90;60.50;;;;;;5024009;28;19913;-69
2022/06/04 07:15:43;;;;;;;;;;;22.00;59.70;;;;;;5023416;28;19913;-68
2022/06/04 07:18:12;;;;;;;;;;;22.00;60.20;;;;;;5022772;28;20023;-69
2022/06/04 07:20:38;;;;;;;;;;;22.00;59.80;;;;;;5023417;28;20556;-69
2022/06/04 07:23:03;;;;;;;;;;;22.00;60.00;;;;;;5022910;28;20051;-68
2022/06/04 07:25:29;;;;;;;;;;;22.00;59.70;;;;;;5022307;28;19947;-68
2022/06/04 07:27:54;;;;;;;;;;;22.00;59.50;;;;;;5023162;28;19917;-69
2022/06/04 07:30:20;;;;;;;;;;;21.90;60.50;;;;;;5022349;28;21751;-68
2022/06/04 07:32:45;;;;;;;;;;;21.90;60.00;;;;;;5022650;28;19924;-68
2022/06/04 07:35:11;;;;;;;;;;;21.90;60.20;;;;;;5026877;28;20614;-68
2022/06/04 07:37:36;;;;;;;;;;;22.00;60.30;;;;;;5027358;28;19924;-68
2022/06/04 07:40:02;;;;;;;;;;;21.90;59.70;;;;;;5027162;28;19914;-68
2022/06/04 07:42:27;;;;;;;;;;;21.90;60.50;;;;;;5026538;28;20400;-68
2022/06/04 07:44:53;;;;;;;;;;;22.00;60.10;;;;;;5027507;28;20445;-66
2022/06/04 07:47:18;;;;;;;;;;;22.00;60.20;;;;;;5026840;28;19918;-68
2022/06/04 07:49:44;;;;;;;;;;;21.90;60.40;;;;;;5026999;28;19913;-66
2022/06/04 07:52:09;;;;;;;;;;;21.90;61.00;;;;;;5026733;28;19913;-67
2022/06/04 07:54:35;;;;;;;;;;;21.90;60.70;;;;;;5026816;28;19920;-69
2022/06/04 07:57:00;;;;;;;;;;;21.90;60.40;;;;;;5027809;28;20367;-70
2022/06/04 07:59:26;;;;;;;;;;;22.00;60.10;;;;;;5027842;28;20383;-69
2022/06/04 08:01:51;;;;;;;;;;;22.00;60.10;;;;;;5027503;28;19921;-67
2022/06/04 08:04:17;;;;;;;;;;;22.00;60.90;;;;;;5026464;28;20400;-66
2022/06/04 08:06:42;;;;;;;;;;;22.00;60.40;;;;;;5026541;28;19952;-68
2022/06/04 08:09:08;;;;;;;;;;;22.00;60.30;;;;;;5026563;28;19967;-68
2022/06/04 08:11:35;;;;;;;;;;;22.00;60.30;;;;;;5026348;28;20543;-68
2022/06/04 08:14:05;;;;;;;;;;;22.00;60.80;;;;;;5026047;28;20367;-68
2022/06/04 08:16:31;;;;;;;;;;;22.00;60.80;;;;;;5026025;28;20181;-68
2022/06/04 08:18:58;;;;;;;;;;;22.00;62.30;;;;;;5025875;28;19945;-68
2022/06/04 08:21:23;;;;;;;;;;;21.90;61.50;;;;;;5027039;28;19921;-68
2022/06/04 08:23:49;;;;;;;;;;;22.00;61.10;;;;;;5025997;28;19928;-68
2022/06/04 08:26:14;;;;;;;;;;;22.00;60.80;;;;;;5025443;28;19932;-67
2022/06/04 08:28:40;;;;;;;;;;;22.00;61.50;;;;;;5026165;28;20492;-69
2022/06/04 08:31:06;;;;;;;;;;;22.00;60.80;;;;;;5026000;28;19917;-68
2022/06/04 08:33:32;;;;;;;;;;;22.00;60.80;;;;;;5025776;28;19940;-68
2022/06/04 08:35:57;;;;;;;;;;;22.00;60.80;;;;;;5024809;28;20346;-68
2022/06/04 08:38:23;;;;;;;;;;;22.00;61.50;;;;;;5026486;28;19913;-68
2022/06/04 08:40:49;;;;;;;;;;;22.00;61.20;;;;;;5026196;28;19944;-68
2022/06/04 08:43:29;;;;;;;;;;;22.00;61.90;;;;;;5008136;28;20276;-68
2022/06/04 08:45:55;;;;;;;;;;;22.00;60.40;;;;;;5007049;28;20353;-68
2022/06/04 08:48:28;;;;;;;;;;;22.00;60.60;;;;;;5025544;28;19963;-67
2022/06/04 08:50:54;;;;;;;;;;;22.00;61.60;;;;;;5025434;28;20895;-67
2022/06/04 08:53:28;;;;;;;;;;;22.00;62.50;;;;;;5025332;28;19913;-67
2022/06/04 08:59:00;;;;;;;;;;;22.00;61.90;;;;;;5025428;28;20009;-68
2022/06/04 09:01:31;;;;;;;;;;;22.00;62.20;;;;;;5025865;28;19913;-68
2022/06/04 09:04:06;;;;;;;;;;;22.00;61.90;;;;;;5028734;28;19913;-67
2022/06/04 09:06:35;;;;;;;;;;;22.10;61.60;;;;;;4997862;28;19933;-67
2022/06/04 09:09:00;;;;;;;;;;;22.10;61.70;;;;;;5004586;28;19913;-67
2022/06/04 09:11:26;;;;;;;;;;;22.10;62.00;;;;;;5023581;28;19936;-67
2022/06/04 09:13:57;;;;;;;;;;;22.00;62.90;;;;;;5026046;28;19967;-67
2022/06/04 09:16:25;;;;;;;;;;;22.00;63.00;;;;;;5027994;28;19913;-67
2022/06/04 09:18:51;;;;;;;;;;;22.00;62.10;;;;;;5025553;28;19920;-68
2022/06/04 09:21:16;;;;;;;;;;;22.00;63.20;;;;;;5025492;28;19917;-67
2022/06/04 09:23:43;;;;;;;;;;;22.00;62.20;;;;;;5007046;28;19914;-66
2022/06/04 09:26:12;;;;;;;;;;;21.90;62.70;;;;;;4997633;28;19924;-68
2022/06/04 09:28:56;;;;;;;;;;;22.00;62.20;;;;;;5005111;28;19914;-68
2022/06/04 09:31:25;;;;;;;;;;;22.10;61.80;;;;;;5036056;28;20205;-69
2022/06/04 09:33:55;;;;;;;;;;;22.10;61.60;;;;;;5024807;28;20120;-67
2022/06/04 09:36:22;;;;;;;;;;;22.10;61.50;;;;;;4997386;28;20008;-68
2022/06/04 09:39:10;;;;;;;;;;;22.10;62.50;;;;;;5004193;28;19921;-68
2022/06/04 09:41:36;;;;;;;;;;;22.10;61.40;;;;;;5019295;28;19936;-68
2022/06/04 09:44:03;;;;;;;;;;;22.10;61.20;;;;;;5025083;28;20552;-67
2022/06/04 09:46:29;;;;;;;;;;;22.10;62.40;;;;;;5015345;28;20506;-67
2022/06/04 09:48:55;;;;;;;;;;;22.10;62.10;;;;;;4992249;28;19918;-68
2022/06/04 09:51:21;;;;;;;;;;;22.10;61.70;;;;;;4975242;28;19914;-67
2022/06/04 09:53:48;;;;;;;;;;;22.10;62.20;;;;;;5005274;28;19968;-67
2022/06/04 09:56:22;;;;;;;;;;;22.10;62.10;;;;;;4986088;28;19914;-67
2022/06/04 09:58:48;;;;;;;;;;;22.10;61.70;;;;;;4986958;28;19925;-68
2022/06/04 10:01:14;;;;;;;;;;;22.20;61.60;;;;;;4987026;28;19914;-68
2022/06/04 10:03:40;;;;;;;;;;;22.10;61.90;;;;;;5004670;28;19914;-68
2022/06/04 10:06:09;;;;;;;;;;;22.10;63.30;;;;;;5004161;28;20189;-67
2022/06/04 10:11:20;;;;;;;;;;;22.10;63.70;;;;;;4989677;28;20012;-68
2022/06/04 10:13:46;;;;;;;;;;;22.10;63.10;;;;;;4986789;28;19913;-67
2022/06/04 10:16:30;;;;;;;;;;;22.10;64.20;;;;;;5003971;28;19925;-68
2022/06/04 10:18:57;;;;;;;;;;;22.00;63.70;;;;;;5024580;28;20000;-68
2022/06/04 10:21:24;;;;;;;;;;;22.00;63.20;;;;;;5024221;28;19920;-68
2022/06/04 10:23:50;;;;;;;;;;;22.00;63.30;;;;;;5023888;28;19951;-67
2022/06/04 10:26:19;;;;;;;;;;;22.00;62.90;;;;;;5019874;28;19997;-67
2022/06/04 10:28:50;;;;;;;;;;;22.00;62.80;;;;;;4987456;28;20484;-66
2022/06/04 10:31:38;;;;;;;;;;;22.10;62.50;;;;;;4986577;28;20598;-68
2022/06/04 10:34:15;;;;;;;;;;;22.10;62.00;;;;;;4984335;28;20045;-67
2022/06/04 10:36:49;;;;;;;;;;;22.20;62.20;;;;;;4986095;28;19920;-68
2022/06/04 10:39:19;;;;;;;;;;;22.10;61.90;;;;;;4986751;28;19913;-67
2022/06/04 10:41:56;;;;;;;;;;;22.10;61.90;;;;;;5004166;28;20004;-69
2022/06/04 10:44:28;;;;;;;;;;;22.10;62.10;;;;;;4986210;28;19914;-68
2022/06/04 10:47:13;;;;;;;;;;;22.10;61.80;;;;;;4985777;28;21537;-68
2022/06/04 10:49:56;;;;;;;;;;;22.10;61.80;;;;;;5023668;28;19914;-63
2022/06/04 10:52:37;;;;;;;;;;;22.10;61.20;;;;;;5024722;28;19936;-68
2022/06/04 10:55:17;;;;;;;;;;;22.10;61.50;;;;;;5025081;28;20422;-66
2022/06/04 10:57:45;;;;;;;;;;;22.10;62.10;;;;;;5029051;28;19927;-67
2022/06/04 11:00:18;;;;;;;;;;;22.10;62.80;;;;;;5005691;28;19913;-68
2022/06/04 11:03:10;;;;;;;;;;;22.10;61.90;;;;;;5036510;28;19917;-68
2022/06/04 11:05:36;;;;;;;;;;;22.10;61.30;;;;;;5018712;28;19939;-68
2022/06/04 11:08:13;;;;;;;;;;;22.00;61.40;;;;;;4996059;28;19940;-68
2022/06/04 11:10:40;;;;;;;;;;;22.10;61.50;;;;;;5002439;28;19948;-69
2022/06/04 11:13:22;;;;;;;;;;;22.10;61.80;;;;;;5016760;28;20021;-68
2022/06/04 11:15:50;;;;;;;;;;;22.10;61.90;;;;;;5021781;28;19928;-66
2022/06/04 11:18:17;;;;;;;;;;;22.00;62.50;;;;;;5007879;28;19921;-66
2022/06/04 11:20:46;;;;;;;;;;;22.00;62.40;;;;;;5002421;28;20430;-67
2022/06/04 11:23:15;;;;;;;;;;;22.00;62.60;;;;;;5016454;28;20048;-68
2022/06/04 11:25:42;;;;;;;;;;;22.00;62.30;;;;;;5023298;28;19913;-67
2022/06/04 11:28:09;;;;;;;;;;;22.00;62.60;;;;;;5009215;28;19917;-67
2022/06/04 11:30:35;;;;;;;;;;;22.00;62.80;;;;;;5004117;28;19913;-66
2022/06/04 11:33:19;;;;;;;;;;;22.00;63.10;;;;;;5015072;28;19913;-68
2022/06/04 11:35:46;;;;;;;;;;;22.10;62.40;;;;;;5023448;28;19996;-68
2022/06/04 11:38:30;;;;;;;;;;;22.10;62.20;;;;;;5009872;28;20442;-68
2022/06/04 11:41:02;;;;;;;;;;;22.00;62.90;;;;;;4997561;28;19913;-68
2022/06/04 11:43:37;;;;;;;;;;;22.10;62.60;;;;;;5007309;28;20342;-68
2022/06/04 11:46:21;;;;;;;;;;;22.10;62.80;;;;;;5005670;28;19928;-69
2022/06/04 11:48:52;;;;;;;;;;;22.00;62.90;;;;;;5023343;28;19929;-65
2022/06/04 11:51:31;;;;;;;;;;;22.10;62.50;;;;;;5005556;28;20426;-68
2022/06/04 11:54:00;;;;;;;;;;;22.10;62.80;;;;;;5005253;28;20334;-68
2022/06/04 11:56:31;;;;;;;;;;;22.10;62.40;;;;;;5023032;28;19913;-69
2022/06/04 11:59:06;;;;;;;;;;;22.10;62.20;;;;;;5022466;28;19925;-66
2022/06/04 12:01:34;;;;;;;;;;;22.20;62.60;;;;;;5005224;28;19913;-68
2022/06/04 12:04:02;;;;;;;;;;;22.00;62.80;;;;;;5002111;28;20350;-68
2022/06/04 12:06:30;;;;;;;;;;;22.10;63.00;;;;;;5005250;28;19917;-68
2022/06/04 12:09:01;;;;;;;;;;;22.00;62.90;;;;;;5005743;28;19913;-68
2022/06/04 12:11:40;;;;;;;;;;;22.00;62.80;;;;;;5021154;28;20756;-67
2022/06/04 12:14:10;;;;;;;;;;;22.00;62.90;;;;;;5011114;28;19975;-68
2022/06/04 12:16:35;;;;;;;;;;;22.00;63.10;;;;;;5004871;28;19917;-69
2022/06/04 12:25:02;;;;;;;;;;;22.10;62.60;;;;;;4986585;28;20312;-68
2022/06/04 12:27:28;;;;;;;;;;;22.00;63.00;;;;;;4986556;28;19917;-67
2022/06/04 12:29:54;;;;;;;;;;;21.90;63.20;;;;;;5006106;28;19913;-68
2022/06/04 12:32:30;;;;;;;;;;;22.00;62.90;;;;;;4988599;28;19948;-69
2022/06/04 12:35:06;;;;;;;;;;;22.00;62.50;;;;;;5041049;28;19913;-68
2022/06/04 12:37:36;;;;;;;;;;;22.00;62.90;;;;;;5007405;28;19924;-68
2022/06/04 12:40:15;;;;;;;;;;;22.10;62.80;;;;;;4989287;28;19917;-68
2022/06/04 12:42:42;;;;;;;;;;;22.10;63.30;;;;;;4988537;28;19913;-67
2022/06/04 12:45:26;;;;;;;;;;;22.10;62.80;;;;;;5007007;28;19928;-67
2022/06/04 12:47:55;;;;;;;;;;;22.10;62.90;;;;;;5025943;28;19928;-67
2022/06/04 12:50:22;;;;;;;;;;;22.00;63.20;;;;;;4988556;28;19918;-68
2022/06/04 12:52:57;;;;;;;;;;;22.00;62.90;;;;;;4988184;28;20884;-67
2022/06/04 12:55:27;;;;;;;;;;;22.00;63.20;;;;;;5011541;28;19918;-68
2022/06/04 12:57:54;;;;;;;;;;;22.00;63.20;;;;;;5007207;28;20803;-68
2022/06/04 13:00:20;;;;;;;;;;;22.00;62.70;;;;;;5007022;28;19972;-67
2022/06/04 13:02:55;;;;;;;;;;;22.00;62.90;;;;;;5005540;28;20128;-68
2022/06/04 13:05:22;;;;;;;;;;;22.00;62.20;;;;;;5023150;28;19920;-69
2022/06/04 13:07:51;;;;;;;;;;;22.00;62.70;;;;;;5025283;28;19931;-67
2022/06/04 13:10:19;;;;;;;;;;;21.90;62.60;;;;;;4991226;28;20466;-69
2022/06/04 13:12:47;;;;;;;;;;;22.00;62.50;;;;;;5005620;28;19917;-68
2022/06/04 13:15:17;;;;;;;;;;;22.00;62.40;;;;;;5003309;28;19913;-67
2022/06/04 13:17:43;;;;;;;;;;;22.10;62.70;;;;;;5007505;28;20274;-67
2022/06/04 13:20:27;;;;;;;;;;;22.00;62.70;;;;;;4993154;28;20001;-68
2022/06/04 13:22:54;;;;;;;;;;;22.00;63.20;;;;;;5005590;28;19964;-68
2022/06/04 13:25:30;;;;;;;;;;;22.00;62.70;;;;;;5002565;28;19914;-68
2022/06/04 13:27:56;;;;;;;;;;;22.00;62.40;;;;;;5023553;28;19974;-68
2022/06/04 13:30:25;;;;;;;;;;;22.00;63.00;;;;;;5029687;28;20316;-67
2022/06/04 13:32:51;;;;;;;;;;;22.00;62.90;;;;;;5007390;28;20326;-68
2022/06/04 13:35:20;;;;;;;;;;;22.10;63.10;;;;;;5038347;28;19939;-67
2022/06/04 13:37:45;;;;;;;;;;;22.10;62.50;;;;;;5045036;28;20539;-68
2022/06/04 13:40:13;;;;;;;;;;;22.10;63.10;;;;;;5033754;28;19962;-69
2022/06/04 13:42:39;;;;;;;;;;;22.10;62.90;;;;;;5008175;28;19917;-65
2022/06/04 13:45:05;;;;;;;;;;;22.10;62.70;;;;;;5017691;28;20272;-69
2022/06/04 13:47:30;;;;;;;;;;;22.10;62.80;;;;;;5044487;28;19943;-69
2022/06/04 13:50:05;;;;;;;;;;;22.10;62.70;;;;;;5018870;28;19967;-68
2022/06/04 13:52:40;;;;;;;;;;;22.10;63.60;;;;;;5025232;28;19913;-66
2022/06/04 13:55:06;;;;;;;;;;;22.00;63.20;;;;;;5021118;28;19917;-67
2022/06/04 13:57:34;;;;;;;;;;;22.00;63.30;;;;;;5006813;28;19921;-68
2022/06/04 14:00:01;;;;;;;;;;;22.00;62.80;;;;;;5003715;28;19935;-68
2022/06/04 14:02:27;;;;;;;;;;;22.00;63.90;;;;;;4987882;28;19977;-68
2022/06/04 14:07:37;;;;;;;;;;;22.00;63.10;;;;;;5004312;28;19924;-68
2022/06/04 14:10:04;;;;;;;;;;;22.00;62.90;;;;;;5004593;28;19963;-68
2022/06/04 14:12:48;;;;;;;;;;;22.10;62.40;;;;;;5004601;28;19913;-68
2022/06/04 14:15:19;;;;;;;;;;;22.10;62.30;;;;;;5003720;28;19913;-68
2022/06/04 14:17:59;;;;;;;;;;;22.10;62.40;;;;;;4987121;28;19918;-68
2022/06/04 14:20:28;;;;;;;;;;;22.20;62.60;;;;;;4977275;28;19914;-68
2022/06/04 14:23:01;;;;;;;;;;;22.10;61.80;;;;;;5023174;28;19952;-69
2022/06/04 14:25:33;;;;;;;;;;;22.20;62.30;;;;;;5023228;28;19913;-68
2022/06/04 14:28:09;;;;;;;;;;;22.20;62.20;;;;;;5024418;28;20032;-68
2022/06/04 14:30:55;;;;;;;;;;;22.20;61.90;;;;;;5014532;28;25745;-68
2022/06/04 14:33:21;;;;;;;;;;;22.20;61.70;;;;;;5004435;28;20433;-67
2022/06/04 14:36:03;;;;;;;;;;;22.20;61.80;;;;;;5011651;28;19921;-67
2022/06/04 14:38:29;;;;;;;;;;;22.20;61.70;;;;;;5023242;28;19913;-67
2022/06/04 14:40:58;;;;;;;;;;;22.20;61.70;;;;;;5014474;28;19920;-68
2022/06/04 14:43:38;;;;;;;;;;;22.20;61.70;;;;;;5002257;28;19993;-68